Time;durP1;ratioP1;P1;durP2;ratioP2;P2;SDS_P1;SDS_P2;PMS_P1;PMS_P2;Temp;Humidity;BMP_temperature;BMP_pressure;BME280_temperature;BME280_humidity;BME280_pressure;Samples;Min_cycle;Max_cycle;Signal;HPM_P1;HPM_P2
2021/07/04 00:00:29;;;;;;;1999.90;999.90;;;11.00;99.90;;;;;;5074590;28;20257;-43
2021/07/04 00:02:58;;;;;;;1999.90;999.90;;;11.00;99.90;;;;;;5074720;28;20573;-43
2021/07/04 00:05:30;;;;;;;1999.90;999.90;;;11.10;99.90;;;;;;5074431;28;20539;-43
2021/07/04 00:07:57;;;;;;;1999.90;999.90;;;11.00;99.90;;;;;;5075076;28;20192;-43
2021/07/04 00:10:26;;;;;;;1999.90;999.90;;;11.10;99.90;;;;;;5074347;28;20221;-43
2021/07/04 00:12:54;;;;;;;1999.90;999.90;;;11.20;99.90;;;;;;5074585;28;20165;-44
2021/07/04 00:15:23;;;;;;;1999.90;999.90;;;11.20;99.90;;;;;;5074790;28;20165;-43
2021/07/04 00:17:50;;;;;;;1999.90;999.90;;;11.30;99.90;;;;;;5074285;28;20181;-43
2021/07/04 00:20:19;;;;;;;1999.90;999.90;;;11.30;99.90;;;;;;5074614;28;20212;-43
2021/07/04 00:22:51;;;;;;;1999.90;999.90;;;11.40;99.90;;;;;;5074505;28;20259;-43
2021/07/04 00:25:18;;;;;;;1999.90;999.90;;;11.40;99.90;;;;;;5074332;28;20164;-43
2021/07/04 00:27:45;;;;;;;1999.90;999.90;;;11.40;99.90;;;;;;5074365;28;20168;-43
2021/07/04 00:30:13;;;;;;;1999.90;999.90;;;11.40;99.90;;;;;;5074378;28;20776;-44
2021/07/04 00:32:41;;;;;;;1999.90;999.90;;;11.40;99.90;;;;;;5074077;28;20168;-43
2021/07/04 00:35:10;;;;;;;1999.90;999.90;;;11.40;99.90;;;;;;5074437;28;20183;-43
2021/07/04 00:37:37;;;;;;;1999.90;999.90;;;11.40;99.90;;;;;;5074185;28;20525;-43
2021/07/04 00:40:06;;;;;;;1999.90;999.90;;;11.50;99.90;;;;;;5074024;28;20204;-43
2021/07/04 00:42:33;;;;;;;1999.90;999.90;;;11.40;99.90;;;;;;5074274;28;20181;-43
2021/07/04 00:45:00;;;;;;;1999.90;999.90;;;11.40;99.90;;;;;;5073932;28;20157;-43
2021/07/04 00:47:27;;;;;;;1999.90;999.90;;;11.40;99.90;;;;;;5074023;28;20172;-43
2021/07/04 00:49:53;;;;;;;1999.90;999.90;;;11.40;99.90;;;;;;5074080;28;20165;-43
2021/07/04 00:52:21;;;;;;;1999.90;999.90;;;11.40;99.90;;;;;;5073866;28;20562;-43
2021/07/04 00:54:47;;;;;;;1999.90;999.90;;;11.40;99.90;;;;;;5073911;28;20649;-43
2021/07/04 00:57:14;;;;;;;1999.90;999.90;;;11.40;99.90;;;;;;5073916;28;20553;-43
2021/07/04 00:59:41;;;;;;;1999.90;999.90;;;11.40;99.90;;;;;;5073683;28;20254;-43
2021/07/04 01:02:08;;;;;;;1999.90;999.90;;;11.40;99.90;;;;;;5073854;28;20164;-43
2021/07/04 01:04:34;;;;;;;1999.90;999.90;;;11.50;99.90;;;;;;5074027;28;20200;-43
2021/07/04 01:07:02;;;;;;;1999.90;999.90;;;11.50;99.90;;;;;;5073374;28;20218;-43
2021/07/04 01:09:29;;;;;;;1999.90;999.90;;;11.50;99.90;;;;;;5074209;28;20207;-43
2021/07/04 01:11:56;;;;;;;1999.90;999.90;;;11.50;99.90;;;;;;5073142;28;20540;-43
2021/07/04 01:14:24;;;;;;;1999.90;999.90;;;11.50;99.90;;;;;;5073385;28;20200;-43
2021/07/04 01:16:51;;;;;;;1999.90;999.90;;;11.50;99.90;;;;;;5073642;28;20525;-43
2021/07/04 01:19:18;;;;;;;1999.90;999.90;;;11.40;99.90;;;;;;5073156;28;20318;-43
2021/07/04 01:21:46;;;;;;;1999.90;999.90;;;11.40;99.90;;;;;;5073395;28;20204;-43
2021/07/04 01:24:13;;;;;;;1999.90;999.90;;;11.40;99.90;;;;;;5073622;28;20649;-43
2021/07/04 01:26:40;;;;;;;1999.90;999.90;;;11.40;99.90;;;;;;5073396;28;20164;-43
2021/07/04 01:29:07;;;;;;;1999.90;999.90;;;11.40;99.90;;;;;;5072127;28;20541;-43
2021/07/04 01:31:34;;;;;;;1999.90;999.90;;;11.40;99.90;;;;;;5073237;28;20168;-43
2021/07/04 01:34:01;;;;;;;1999.90;999.90;;;11.40;99.90;;;;;;5073114;28;20172;-43
2021/07/04 01:36:28;;;;;;;1999.90;999.90;;;11.50;99.90;;;;;;5073167;28;20169;-43
2021/07/04 01:38:54;;;;;;;1999.90;999.90;;;11.40;99.90;;;;;;5072973;28;20168;-44
2021/07/04 01:41:21;;;;;;;1999.90;999.90;;;11.50;99.90;;;;;;5072929;28;20172;-43
2021/07/04 01:43:48;;;;;;;1999.90;999.90;;;11.50;99.90;;;;;;5073251;28;20161;-43
2021/07/04 01:46:15;;;;;;;1999.90;999.90;;;11.40;99.90;;;;;;5072897;28;20217;-43
2021/07/04 01:48:41;;;;;;;1999.90;999.90;;;11.30;99.90;;;;;;5072677;28;20157;-43
2021/07/04 01:51:08;;;;;;;1999.90;999.90;;;11.40;99.90;;;;;;5073176;28;20180;-43
2021/07/04 01:53:37;;;;;;;1999.90;999.90;;;11.20;99.90;;;;;;5072679;28;20648;-43
2021/07/04 01:56:06;;;;;;;1999.90;999.90;;;11.20;99.90;;;;;;5072841;28;20183;-43
2021/07/04 01:58:33;;;;;;;1999.90;999.90;;;11.10;99.90;;;;;;5073071;28;20263;-43
2021/07/04 02:01:00;;;;;;;1999.90;999.90;;;11.00;99.90;;;;;;5073147;28;20200;-43
2021/07/04 02:03:27;;;;;;;1999.90;999.90;;;11.00;99.90;;;;;;5072670;28;20541;-43
2021/07/04 02:05:55;;;;;;;1999.90;999.90;;;10.90;99.90;;;;;;5072542;28;20176;-43
2021/07/04 02:08:22;;;;;;;1999.90;999.90;;;10.90;99.90;;;;;;5072471;28;20247;-43
2021/07/04 02:10:48;;;;;;;1999.90;999.90;;;10.90;99.90;;;;;;5072143;28;20227;-43
2021/07/04 02:13:15;;;;;;;1999.90;999.90;;;10.90;99.90;;;;;;5072475;28;20176;-43
2021/07/04 02:15:43;;;;;;;1999.90;999.90;;;11.00;99.90;;;;;;5072081;28;20197;-43
2021/07/04 02:18:14;;;;;;;1999.90;999.90;;;11.00;99.90;;;;;;5072253;28;20528;-44
2021/07/04 02:20:44;;;;;;;1999.90;999.90;;;11.00;99.90;;;;;;5072022;28;20196;-43
2021/07/04 02:23:14;;;;;;;1999.90;999.90;;;11.00;99.90;;;;;;5072151;28;20169;-43
2021/07/04 02:25:43;;;;;;;1999.90;999.90;;;11.00;99.90;;;;;;5072570;28;20153;-43
2021/07/04 02:28:11;;;;;;;1999.90;999.90;;;11.00;99.90;;;;;;5072256;28;20252;-43
2021/07/04 02:30:38;;;;;;;1999.90;999.90;;;11.00;99.90;;;;;;5072185;28;20169;-43
2021/07/04 02:33:08;;;;;;;1999.90;999.90;;;11.00;99.90;;;;;;5072306;28;20247;-43
2021/07/04 02:35:41;;;;;;;1999.90;999.90;;;11.00;99.90;;;;;;5071998;28;20524;-43
2021/07/04 02:38:08;;;;;;;1999.90;999.90;;;11.00;99.90;;;;;;5071926;28;20187;-43
2021/07/04 02:40:36;;;;;;;1999.90;999.90;;;11.00;99.90;;;;;;5071982;28;20200;-43
2021/07/04 02:43:05;;;;;;;1999.90;999.90;;;11.00;99.90;;;;;;5071702;28;20194;-42
2021/07/04 02:45:32;;;;;;;1999.90;999.90;;;11.10;99.90;;;;;;5072108;28;20176;-43
2021/07/04 02:47:59;;;;;;;1999.90;999.90;;;11.00;99.90;;;;;;5071778;28;20653;-43
2021/07/04 02:50:26;;;;;;;1999.90;999.90;;;11.10;99.90;;;;;;5071602;28;20213;-43
2021/07/04 02:52:54;;;;;;;1999.90;999.90;;;11.10;99.90;;;;;;5072068;28;20172;-43
2021/07/04 02:55:22;;;;;;;1999.90;999.90;;;11.10;99.90;;;;;;5071497;28;20180;-43
2021/07/04 02:57:50;;;;;;;1999.90;999.90;;;11.10;99.90;;;;;;5071493;28;20164;-43
2021/07/04 03:00:25;;;;;;;1999.90;999.90;;;11.10;99.90;;;;;;5071666;28;20219;-43
2021/07/04 03:02:53;;;;;;;1999.90;999.90;;;11.10;99.90;;;;;;5071467;28;20217;-43
2021/07/04 03:05:19;;;;;;;1999.90;999.90;;;11.10;99.90;;;;;;5071709;28;20180;-43
2021/07/04 03:07:47;;;;;;;1999.90;999.90;;;11.00;99.90;;;;;;5071537;28;20172;-43
2021/07/04 03:10:19;;;;;;;1999.90;999.90;;;11.10;99.90;;;;;;5071393;28;20618;-43
2021/07/04 03:12:46;;;;;;;1999.90;999.90;;;11.10;99.90;;;;;;5071616;28;20168;-43
2021/07/04 03:15:15;;;;;;;1999.90;999.90;;;11.10;99.90;;;;;;5071392;28;20529;-43
2021/07/04 03:17:41;;;;;;;1999.90;999.90;;;11.10;99.90;;;;;;5071132;28;20175;-43
2021/07/04 03:20:10;;;;;;;1999.90;999.90;;;11.10;99.90;;;;;;5071781;28;20230;-43
2021/07/04 03:22:37;;;;;;;1999.90;999.90;;;11.10;99.90;;;;;;5071328;28;20173;-43
2021/07/04 03:25:05;;;;;;;1999.90;999.90;;;11.00;99.90;;;;;;5071477;28;20528;-43
2021/07/04 03:27:32;;;;;;;1999.90;999.90;;;11.00;99.90;;;;;;5071674;28;20535;-43
2021/07/04 03:29:59;;;;;;;1999.90;999.90;;;11.00;99.90;;;;;;5071373;28;20164;-43
2021/07/04 03:32:26;;;;;;;1999.90;999.90;;;11.00;99.90;;;;;;5075184;28;20210;-43
2021/07/04 03:34:52;;;;;;;1999.90;999.90;;;11.00;99.90;;;;;;5075542;28;20633;-44
2021/07/04 03:37:19;;;;;;;1999.90;999.90;;;11.00;99.90;;;;;;5075369;28;20700;-43
2021/07/04 03:39:46;;;;;;;1999.90;999.90;;;11.00;99.90;;;;;;5075829;28;20220;-43
2021/07/04 03:42:14;;;;;;;1999.90;999.90;;;11.00;99.90;;;;;;5075464;28;20255;-43
2021/07/04 03:44:40;;;;;;;1999.90;999.90;;;11.10;99.90;;;;;;5075231;28;20251;-43
2021/07/04 03:47:07;;;;;;;1999.90;999.90;;;11.10;99.90;;;;;;5075752;28;20169;-43
2021/07/04 03:49:34;;;;;;;1999.90;999.90;;;11.10;99.90;;;;;;5075331;28;20252;-43
2021/07/04 03:52:01;;;;;;;1999.90;999.90;;;11.20;99.90;;;;;;5074673;28;20208;-43
2021/07/04 03:54:27;;;;;;;1999.90;999.90;;;11.10;99.90;;;;;;5075443;28;20172;-45
2021/07/04 03:56:54;;;;;;;1999.90;999.90;;;11.10;99.90;;;;;;5074815;28;20165;-43
2021/07/04 03:59:21;;;;;;;1999.90;999.90;;;11.10;99.90;;;;;;5074852;28;20196;-43
2021/07/04 04:01:48;;;;;;;1999.90;999.90;;;11.10;99.90;;;;;;5075276;28;20250;-43
2021/07/04 04:04:14;;;;;;;1999.90;999.90;;;11.00;99.90;;;;;;5074704;28;20630;-43
2021/07/04 04:06:41;;;;;;;1999.90;999.90;;;10.90;99.90;;;;;;5074864;28;20179;-43
2021/07/04 04:09:08;;;;;;;1999.90;999.90;;;10.90;99.90;;;;;;5074816;28;20207;-43
2021/07/04 04:11:35;;;;;;;1999.90;999.90;;;11.00;99.90;;;;;;5074217;28;20227;-43
2021/07/04 04:14:02;;;;;;;1999.90;999.90;;;11.00;99.90;;;;;;5074642;28;20173;-43
2021/07/04 04:16:29;;;;;;;1999.90;999.90;;;10.90;99.90;;;;;;5074791;28;20580;-43
2021/07/04 04:18:56;;;;;;;1999.90;999.90;;;11.00;99.90;;;;;;5074814;28;20172;-43
2021/07/04 04:21:22;;;;;;;1999.90;999.90;;;11.00;99.90;;;;;;5074629;28;20221;-43
2021/07/04 04:23:49;;;;;;;1999.90;999.90;;;11.00;99.90;;;;;;5074468;28;20168;-43
2021/07/04 04:26:16;;;;;;;1999.90;999.90;;;11.00;99.90;;;;;;5074126;28;20309;-43
2021/07/04 04:28:42;;;;;;;1999.90;999.90;;;11.00;99.90;;;;;;5074780;28;20573;-43
2021/07/04 04:31:10;;;;;;;1999.90;999.90;;;11.00;99.90;;;;;;5074350;28;20179;-43
2021/07/04 04:33:36;;;;;;;1999.90;999.90;;;11.00;99.90;;;;;;5074158;28;20181;-43
2021/07/04 04:36:03;;;;;;;1999.90;999.90;;;11.00;99.90;;;;;;5074744;28;20172;-43
2021/07/04 04:38:30;;;;;;;1999.90;999.90;;;11.00;99.90;;;;;;5073972;28;20179;-43
2021/07/04 04:40:57;;;;;;;1999.90;999.90;;;11.00;99.90;;;;;;5074118;28;20200;-43
2021/07/04 04:43:23;;;;;;;1999.90;999.90;;;11.10;99.90;;;;;;5073902;28;20160;-47
2021/07/04 04:45:50;;;;;;;1999.90;999.90;;;11.10;99.90;;;;;;5073980;28;20187;-43
2021/07/04 04:48:17;;;;;;;1999.90;999.90;;;11.10;99.90;;;;;;5074094;28;20199;-43
2021/07/04 04:50:43;;;;;;;1999.90;999.90;;;11.10;99.90;;;;;;5073936;28;20181;-43
2021/07/04 04:53:10;;;;;;;1999.90;999.90;;;11.10;99.90;;;;;;5074339;28;20176;-43
2021/07/04 04:55:37;;;;;;;1999.90;999.90;;;11.10;99.90;;;;;;5074121;28;20176;-43
2021/07/04 04:58:04;;;;;;;1999.90;999.90;;;11.10;99.90;;;;;;5073852;28;20255;-43
2021/07/04 05:00:30;;;;;;;1999.90;999.90;;;11.10;99.90;;;;;;5073598;28;20650;-43
2021/07/04 05:03:03;;;;;;;1999.90;999.90;;;11.10;99.90;;;;;;5074103;28;20172;-43
2021/07/04 05:05:30;;;;;;;1999.90;999.90;;;11.10;99.90;;;;;;5073818;28;20562;-43
2021/07/04 05:07:57;;;;;;;1999.90;999.90;;;11.10;99.90;;;;;;5073482;28;20255;-43
2021/07/04 05:10:23;;;;;;;1999.90;999.90;;;11.10;99.90;;;;;;5073841;28;20237;-43
2021/07/04 05:12:50;;;;;;;1999.90;999.90;;;11.10;99.90;;;;;;5073471;28;20183;-43
2021/07/04 05:15:17;;;;;;;1999.90;999.90;;;11.20;99.90;;;;;;5073533;28;20169;-43
2021/07/04 05:17:44;;;;;;;1999.90;999.90;;;11.20;99.90;;;;;;5073539;28;20171;-43
2021/07/04 05:20:11;;;;;;;1999.90;999.90;;;11.20;99.90;;;;;;5073239;28;20299;-44
2021/07/04 05:22:38;;;;;;;1999.90;999.90;;;11.30;99.90;;;;;;5073576;28;20167;-44
2021/07/04 05:25:06;;;;;;;1999.90;999.90;;;11.20;99.90;;;;;;5073426;28;20176;-43
2021/07/04 05:27:33;;;;;;;1999.90;999.90;;;11.10;99.90;;;;;;5073230;28;21055;-43
2021/07/04 05:29:59;;;;;;;1999.90;999.90;;;11.00;99.90;;;;;;5073369;28;20172;-43
2021/07/04 05:32:26;;;;;;;1999.90;999.90;;;11.00;99.90;;;;;;5073257;28;20253;-43
2021/07/04 05:34:53;;;;;;;1999.90;999.90;;;10.90;99.90;;;;;;5072946;28;20200;-43
2021/07/04 05:37:20;;;;;;;1999.90;999.90;;;10.80;99.90;;;;;;5073457;28;20222;-43
2021/07/04 05:39:47;;;;;;;1999.90;999.90;;;10.80;99.90;;;;;;5072698;28;20196;-43
2021/07/04 05:42:14;;;;;;;1999.90;999.90;;;10.80;99.90;;;;;;5072741;28;20179;-50
2021/07/04 05:44:40;;;;;;;1999.90;999.90;;;10.80;99.90;;;;;;5073304;28;20172;-43
2021/07/04 05:47:08;;;;;;;1999.90;999.90;;;10.90;99.90;;;;;;5072819;28;20172;-44
2021/07/04 05:49:36;;;;;;;1999.90;999.90;;;10.90;99.90;;;;;;5073026;28;20603;-43
2021/07/04 05:52:06;;;;;;;1999.90;999.90;;;10.90;99.90;;;;;;5072731;28;20188;-43
2021/07/04 05:54:33;;;;;;;1999.90;999.90;;;10.90;99.90;;;;;;5071978;28;20237;-43
2021/07/04 05:56:59;;;;;;;1999.90;999.90;;;10.90;99.90;;;;;;5072834;28;20709;-44
2021/07/04 05:59:26;;;;;;;1999.90;999.90;;;10.80;99.90;;;;;;5072579;28;20547;-47
2021/07/04 06:01:53;;;;;;;1999.90;999.90;;;10.80;99.90;;;;;;5072377;28;20176;-44
2021/07/04 06:04:19;;;;;;;1999.90;999.90;;;10.80;99.90;;;;;;5072928;28;20251;-44
2021/07/04 06:06:46;;;;;;;1999.90;999.90;;;10.90;99.90;;;;;;5072673;28;20222;-44
2021/07/04 06:09:13;;;;;;;1999.90;999.90;;;10.80;99.90;;;;;;5072317;28;20157;-45
2021/07/04 06:11:40;;;;;;;1999.90;999.90;;;10.80;99.90;;;;;;5072794;28;20735;-44
2021/07/04 06:14:07;;;;;;;1999.90;999.90;;;10.80;99.90;;;;;;5072309;28;20176;-44
2021/07/04 06:16:34;;;;;;;1999.90;999.90;;;10.90;99.90;;;;;;5071927;28;20168;-44
2021/07/04 06:19:01;;;;;;;1999.90;999.90;;;11.00;99.90;;;;;;5072529;28;20176;-46
2021/07/04 06:21:28;;;;;;;1999.90;999.90;;;11.10;99.90;;;;;;5071949;28;20178;-46
2021/07/04 06:23:54;;;;;;;1999.90;999.90;;;11.10;99.90;;;;;;5072090;28;20200;-44
2021/07/04 06:26:21;;;;;;;1999.90;999.90;;;11.20;99.90;;;;;;5072386;28;20589;-44
2021/07/04 06:28:48;;;;;;;1999.90;999.90;;;11.20;99.90;;;;;;5072026;28;20646;-43
2021/07/04 06:31:16;;;;;;;1999.90;999.90;;;11.20;99.90;;;;;;5072151;28;20161;-44
2021/07/04 06:33:44;;;;;;;1999.90;999.90;;;11.30;99.90;;;;;;5071944;28;20527;-44
2021/07/04 06:36:11;;;;;;;1999.90;999.90;;;11.20;99.90;;;;;;5071921;28;20180;-45
2021/07/04 06:38:38;;;;;;;1999.90;999.90;;;11.20;99.90;;;;;;5071670;28;20629;-44
2021/07/04 06:41:05;;;;;;;1999.90;999.90;;;11.20;99.90;;;;;;5071948;28;20192;-47
2021/07/04 06:43:32;;;;;;;1999.90;999.90;;;11.20;99.90;;;;;;5071499;28;20231;-46
2021/07/04 06:45:58;;;;;;;1999.90;999.90;;;11.10;99.90;;;;;;5072034;28;20262;-46
2021/07/04 06:48:25;;;;;;;1999.90;999.90;;;11.20;99.90;;;;;;5071435;28;20164;-43
2021/07/04 06:50:52;;;;;;;1999.90;999.90;;;11.10;99.90;;;;;;5071587;28;20623;-43
2021/07/04 06:53:19;;;;;;;1999.90;999.90;;;11.10;99.90;;;;;;5072063;28;20156;-44
2021/07/04 06:55:45;;;;;;;1999.90;999.90;;;11.10;99.90;;;;;;5071310;28;20532;-44
2021/07/04 06:58:12;;;;;;;1999.90;999.90;;;11.00;99.90;;;;;;5071463;28;20239;-44
2021/07/04 07:00:39;;;;;;;1999.90;999.90;;;11.00;99.90;;;;;;5070340;28;20210;-43
2021/07/04 07:03:06;;;;;;;1999.90;999.90;;;11.00;99.90;;;;;;5071494;28;20615;-43
2021/07/04 07:05:32;;;;;;;1999.90;999.90;;;11.00;99.90;;;;;;5071425;28;20168;-43
2021/07/04 07:07:59;;;;;;;1999.90;999.90;;;11.00;99.90;;;;;;5071271;28;20179;-44
2021/07/04 07:10:26;;;;;;;1999.90;999.90;;;11.10;99.90;;;;;;5071519;28;20183;-45
2021/07/04 07:12:53;;;;;;;1999.90;999.90;;;11.20;99.90;;;;;;5071343;28;20175;-43
2021/07/04 07:15:20;;;;;;;1999.90;999.90;;;11.40;99.90;;;;;;5071240;28;20202;-44
2021/07/04 07:17:53;;;;;;;1999.90;999.90;;;11.50;99.90;;;;;;5052749;28;20682;-43
2021/07/04 07:20:20;;;;;;;1999.90;999.90;;;11.60;99.90;;;;;;5071556;28;20296;-43
2021/07/04 07:22:47;;;;;;;1999.90;999.90;;;11.70;99.90;;;;;;5071110;28;20172;-44
2021/07/04 07:25:14;;;;;;;1999.90;999.90;;;11.80;99.90;;;;;;5071229;28;20168;-43
2021/07/04 07:27:41;;;;;;;1999.90;999.90;;;11.90;99.90;;;;;;5071641;28;20242;-47
2021/07/04 07:30:10;;;;;;;1999.90;999.90;;;12.00;99.90;;;;;;5071174;28;20221;-46
2021/07/04 07:32:37;;;;;;;1999.90;999.90;;;12.20;99.90;;;;;;5071357;28;20251;-43
2021/07/04 07:35:06;;;;;;;1999.90;999.90;;;12.40;99.90;;;;;;5071349;28;20168;-44
2021/07/04 07:37:33;;;;;;;1999.90;999.90;;;12.50;99.90;;;;;;5071178;28;20165;-43
2021/07/04 07:40:00;;;;;;;1999.90;999.90;;;12.50;99.90;;;;;;5071069;28;20210;-43
2021/07/04 07:42:26;;;;;;;1999.90;999.90;;;12.50;99.90;;;;;;5071233;28;20161;-43
2021/07/04 07:44:53;;;;;;;1999.90;999.90;;;12.50;99.90;;;;;;5071153;28;20175;-48
2021/07/04 07:47:20;;;;;;;1999.90;999.90;;;12.50;99.90;;;;;;5071248;28;20209;-44
2021/07/04 07:49:47;;;;;;;1999.90;999.90;;;12.50;99.90;;;;;;5071068;28;20229;-43
2021/07/04 07:52:14;;;;;;;1999.90;999.90;;;12.50;99.90;;;;;;5071122;28;20586;-43
2021/07/04 07:54:41;;;;;;;1999.90;999.90;;;12.40;99.90;;;;;;5071531;28;20170;-43
2021/07/04 07:57:08;;;;;;;1999.90;999.90;;;12.40;99.90;;;;;;5071019;28;20169;-43
2021/07/04 07:59:35;;;;;;;1999.90;999.90;;;12.30;99.90;;;;;;5070715;28;20208;-43
2021/07/04 08:02:02;;;;;;;1999.90;999.90;;;12.30;99.90;;;;;;5071204;28;20180;-43
2021/07/04 08:04:29;;;;;;;1999.90;999.90;;;12.30;99.90;;;;;;5070739;28;20171;-42
2021/07/04 08:06:55;;;;;;;1999.90;999.90;;;12.50;99.90;;;;;;5070797;28;20173;-43
2021/07/04 08:09:22;;;;;;;1999.90;999.90;;;12.60;99.90;;;;;;5071053;28;20227;-45
2021/07/04 08:11:49;;;;;;;1999.90;999.90;;;12.60;99.90;;;;;;5070475;28;20235;-43
2021/07/04 08:14:16;;;;;;;1999.90;999.90;;;12.70;99.90;;;;;;5070729;28;20177;-43
2021/07/04 08:16:42;;;;;;;1999.90;999.90;;;13.00;99.90;;;;;;5071399;28;20160;-43
2021/07/04 08:19:09;;;;;;;1999.90;999.90;;;13.30;99.90;;;;;;5072907;28;20222;-43
2021/07/04 08:21:36;;;;;;;1999.90;999.90;;;13.60;99.90;;;;;;5074424;28;20196;-43
2021/07/04 08:24:03;;;;;;;1999.90;999.90;;;13.80;99.90;;;;;;5074486;28;20184;-43
2021/07/04 08:26:30;;;;;;;1999.90;999.90;;;13.80;99.90;;;;;;5074110;28;20302;-43
2021/07/04 08:28:57;;;;;;;1999.90;999.90;;;13.90;99.90;;;;;;5074626;28;20573;-44
2021/07/04 08:31:25;;;;;;;1999.90;999.90;;;13.80;99.90;;;;;;5074271;28;20535;-43
2021/07/04 08:33:53;;;;;;;1999.90;999.90;;;13.70;99.90;;;;;;5073966;28;20176;-45
2021/07/04 08:36:21;;;;;;;1999.90;999.90;;;13.60;99.90;;;;;;5056523;28;20176;-44
2021/07/04 08:38:48;;;;;;;1999.90;999.90;;;13.30;99.90;;;;;;5074076;28;20211;-44
2021/07/04 08:41:15;;;;;;;1999.90;999.90;;;13.10;99.90;;;;;;5074002;28;20556;-43
2021/07/04 08:43:42;;;;;;;1999.90;999.90;;;12.90;99.90;;;;;;5074293;28;20531;-43
2021/07/04 08:46:09;;;;;;;1999.90;999.90;;;12.80;99.90;;;;;;5074073;28;20172;-43
2021/07/04 08:48:41;;;;;;;1999.90;999.90;;;12.50;99.90;;;;;;5073915;28;20176;-42
2021/07/04 08:51:09;;;;;;;1999.90;999.90;;;12.30;99.90;;;;;;5073975;28;20268;-42
2021/07/04 08:53:35;;;;;;;1999.90;999.90;;;12.00;99.90;;;;;;5073760;28;20172;-43
2021/07/04 08:56:03;;;;;;;1999.90;999.90;;;12.00;99.90;;;;;;5073758;28;20241;-43
2021/07/04 08:58:30;;;;;;;1999.90;999.90;;;12.00;99.90;;;;;;5073946;28;20222;-41
2021/07/04 09:01:27;;;;;;;1999.90;999.90;;;12.00;99.90;;;;;;5073515;28;20215;-42
2021/07/04 09:04:15;;;;;;;1999.90;999.90;;;12.10;99.90;;;;;;5053878;28;20187;-43
2021/07/04 09:06:52;;;;;;;1999.90;999.90;;;12.30;99.90;;;;;;5073624;28;20172;-43
2021/07/04 09:09:29;;;;;;;1999.90;999.90;;;12.40;99.90;;;;;;5073814;28;20577;-42
2021/07/04 09:11:57;;;;;;;1999.90;999.90;;;12.40;99.90;;;;;;5073497;28;20226;-42
2021/07/04 09:14:42;;;;;;;1999.90;999.90;;;12.60;99.90;;;;;;5073383;28;20517;-43
2021/07/04 09:17:10;;;;;;;1999.90;999.90;;;12.80;99.90;;;;;;5073819;28;20240;-43
2021/07/04 09:19:57;;;;;;;1999.90;999.90;;;12.90;99.90;;;;;;5073309;28;20572;-43
2021/07/04 09:22:45;;;;;;;1999.90;999.90;;;13.00;99.90;;;;;;5073407;28;20596;-43
2021/07/04 09:25:30;;;;;;;1999.90;999.90;;;13.20;99.90;;;;;;5073513;28;20160;-43
2021/07/04 09:28:07;;;;;;;1999.90;999.90;;;13.10;99.90;;;;;;5072242;28;20263;-44
2021/07/04 09:30:38;;;;;;;1999.90;999.90;;;13.30;99.90;;;;;;5073427;28;20156;-43
2021/07/04 09:33:14;;;;;;;1999.90;999.90;;;13.30;99.90;;;;;;5055285;28;20259;-43
2021/07/04 09:35:57;;;;;;;1999.90;999.90;;;13.30;99.90;;;;;;5072969;28;20161;-44
2021/07/04 09:38:29;;;;;;;1999.90;999.90;;;13.40;99.90;;;;;;5073339;28;20255;-44
2021/07/04 09:40:55;;;;;;;1999.90;999.90;;;13.60;99.90;;;;;;5073022;28;20261;-43
2021/07/04 09:43:23;;;;;;;1999.90;999.90;;;13.80;99.90;;;;;;5073140;28;20215;-47
2021/07/04 09:45:57;;;;;;;1999.90;999.90;;;13.80;99.90;;;;;;5072956;28;20222;-44
2021/07/04 09:48:47;;;;;;;1999.90;999.90;;;13.90;99.90;;;;;;5072809;28;20514;-44
2021/07/04 09:51:24;;;;;;;1999.90;999.90;;;13.90;99.90;;;;;;5073005;28;20168;-43
2021/07/04 09:53:54;;;;;;;1999.90;999.90;;;14.00;99.90;;;;;;5072542;28;20236;-48
2021/07/04 09:56:29;;;;;;;1999.90;999.90;;;14.00;99.90;;;;;;5072457;28;20234;-44
2021/07/04 09:58:58;;;;;;;1999.90;999.90;;;14.00;99.90;;;;;;5072789;28;20537;-45
2021/07/04 10:01:37;;;;;;;1999.90;999.90;;;14.10;99.90;;;;;;5072228;28;20199;-45
2021/07/04 10:04:23;;;;;;;1999.90;999.90;;;14.30;99.90;;;;;;5072592;28;20171;-43
2021/07/04 10:06:52;;;;;;;1999.90;999.90;;;14.40;99.90;;;;;;5072604;28;20516;-43
2021/07/04 10:09:20;;;;;;;1999.90;999.90;;;14.30;99.90;;;;;;5072389;28;20530;-47
2021/07/04 10:11:48;;;;;;;1999.90;999.90;;;14.30;99.90;;;;;;5072386;28;20452;-49
2021/07/04 10:14:16;;;;;;;1999.90;999.90;;;14.30;99.90;;;;;;5071932;28;20572;-46
2021/07/04 10:16:44;;;;;;;1999.90;999.90;;;14.20;99.90;;;;;;5071738;28;20227;-46
2021/07/04 10:19:17;;;;;;;1999.90;999.90;;;14.30;99.90;;;;;;5072385;28;20252;-45
2021/07/04 10:21:44;;;;;;;1999.90;999.90;;;14.30;99.90;;;;;;5071537;28;20169;-44
2021/07/04 10:24:12;;;;;;;1999.90;999.90;;;14.40;99.90;;;;;;5071518;28;20173;-45
2021/07/04 10:26:41;;;;;;;1999.90;999.90;;;14.50;99.90;;;;;;5071527;28;20552;-44
2021/07/04 10:29:09;;;;;;;1999.90;999.90;;;14.40;99.90;;;;;;5054163;28;20180;-47
2021/07/04 10:31:37;;;;;;;1999.90;999.90;;;14.40;99.90;;;;;;5071858;28;20526;-44
2021/07/04 10:34:15;;;;;;;1999.90;999.90;;;14.40;99.90;;;;;;5070593;28;20188;-44
2021/07/04 10:37:02;;;;;;;1999.90;999.90;;;14.40;99.90;;;;;;5071588;28;20526;-43
2021/07/04 10:39:33;;;;;;;1999.90;999.90;;;14.60;99.90;;;;;;5071612;28;20188;-44
2021/07/04 10:42:11;;;;;;;1999.90;999.90;;;14.80;99.90;;;;;;5071739;28;20164;-44
2021/07/04 10:44:48;;;;;;;1999.90;999.90;;;14.90;99.90;;;;;;5071924;28;20209;-44
2021/07/04 10:47:15;;;;;;;1999.90;999.90;;;14.80;99.90;;;;;;5071977;28;20168;-44
2021/07/04 10:49:48;;;;;;;1999.90;999.90;;;15.00;99.90;;;;;;5071853;28;20231;-44
2021/07/04 10:52:37;;;;;;;1999.90;999.90;;;15.10;99.90;;;;;;5071636;28;20155;-45
2021/07/04 10:55:07;;;;;;;1999.90;999.90;;;15.10;99.90;;;;;;5071388;28;20368;-43
2021/07/04 10:57:50;;;;;;;1999.90;999.90;;;15.00;99.90;;;;;;5070965;28;20182;-43
2021/07/04 11:00:19;;;;;;;1999.90;999.90;;;14.80;99.90;;;;;;5072000;28;20203;-43
2021/07/04 11:02:53;;;;;;;1999.90;999.90;;;14.40;99.90;;;;;;5071141;28;20165;-43
2021/07/04 11:05:33;;;;;;;1999.90;999.90;;;13.80;99.90;;;;;;5071305;28;20161;-43
2021/07/04 11:08:03;;;;;;;1999.90;999.90;;;13.40;99.90;;;;;;5071514;28;20159;-43
2021/07/04 11:10:31;;;;;;;1999.90;999.90;;;13.20;99.90;;;;;;5071165;28;20211;-49
2021/07/04 11:13:17;;;;;;;1999.90;999.90;;;13.10;99.90;;;;;;5071478;28;20172;-46
2021/07/04 11:15:49;;;;;;;1999.90;999.90;;;13.20;99.90;;;;;;5070961;28;20164;-45
2021/07/04 11:18:20;;;;;;;1999.90;999.90;;;13.30;99.90;;;;;;5052759;28;20176;-43
2021/07/04 11:20:49;;;;;;;1999.90;999.90;;;13.50;99.90;;;;;;5071441;28;20192;-43
2021/07/04 11:23:24;;;;;;;1999.90;999.90;;;13.60;99.90;;;;;;5070841;28;20179;-43
2021/07/04 11:26:13;;;;;;;1999.90;999.90;;;13.80;99.90;;;;;;5070824;28;20164;-45
2021/07/04 11:28:50;;;;;;;1999.90;999.90;;;13.90;99.90;;;;;;5070888;28;20460;-43
2021/07/04 11:31:20;;;;;;;1999.90;999.90;;;14.00;99.90;;;;;;5070595;28;20153;-43
2021/07/04 11:33:51;;;;;;;1999.90;999.90;;;14.10;99.90;;;;;;5070661;28;20168;-43
2021/07/04 11:36:27;;;;;;;1999.90;999.90;;;14.20;99.90;;;;;;5071001;28;20184;-43
2021/07/04 11:39:12;;;;;;;1999.90;999.90;;;14.30;99.90;;;;;;5070966;28;20170;-43
2021/07/04 11:41:46;;;;;;;1999.90;999.90;;;14.50;99.90;;;;;;5071221;28;20184;-45
2021/07/04 11:44:17;;;;;;;1999.90;999.90;;;14.50;99.90;;;;;;5071172;28;20161;-44
2021/07/04 11:46:46;;;;;;;1999.90;999.90;;;14.60;99.90;;;;;;5071226;28;20234;-44
2021/07/04 11:49:26;;;;;;;1999.90;999.90;;;14.50;99.90;;;;;;5071393;28;20521;-44
2021/07/04 11:52:00;;;;;;;1999.90;999.90;;;14.40;99.90;;;;;;5071928;28;20165;-44
2021/07/04 11:54:30;;;;;;;1999.90;999.90;;;14.60;99.90;;;;;;5075202;28;20164;-44
2021/07/04 11:59:56;;;;;;;1999.90;999.90;;;15.00;99.90;;;;;;5074473;28;20249;-43
2021/07/04 12:02:23;;;;;;;1999.90;999.90;;;15.10;99.90;;;;;;5075088;28;20197;-44
2021/07/04 12:04:50;;;;;;;1999.90;999.90;;;15.00;99.90;;;;;;5074515;28;20169;-44
2021/07/04 12:07:21;;;;;;;1999.90;999.90;;;15.00;99.90;;;;;;5074852;28;20172;-43
2021/07/04 12:09:51;;;;;;;1999.90;999.90;;;15.00;99.90;;;;;;5074856;28;20157;-46